Time;durP1;ratioP1;P1;durP2;ratioP2;P2;SDS_P1;SDS_P2;PMS_P1;PMS_P2;Temp;Humidity;BMP_temperature;BMP_pressure;BME280_temperature;BME280_humidity;BME280_pressure;Samples;Min_cycle;Max_cycle;Signal;HPM_P1;HPM_P2
2023/04/13 00:02:05;;;;;;;30.57;16.57;;;;;;;;;;4343673;32;318789;-80
2023/04/13 00:04:32;;;;;;;39.00;16.77;;;;;;;;;;4354543;32;332936;-81
2023/04/13 00:07:01;;;;;;;32.23;17.23;;;;;;;;;;4354372;32;318815;-80
2023/04/13 00:09:29;;;;;;;36.77;18.77;;;;;;;;;;4340882;32;418204;-81
2023/04/13 00:11:57;;;;;;;43.17;20.73;;;;;;;;;;4353457;32;318556;-80
2023/04/13 00:14:26;;;;;;;43.57;22.93;;;;;;;;;;4343276;32;325447;-80
2023/04/13 00:16:55;;;;;;;45.37;24.43;;;;;;;;;;4353886;32;318559;-80
2023/04/13 00:19:22;;;;;;;51.17;25.50;;;;;;;;;;4344822;32;319063;-80
2023/04/13 00:21:51;;;;;;;60.80;28.10;;;;;;;;;;4355271;32;318751;-81
2023/04/13 00:24:19;;;;;;;47.80;27.67;;;;;;;;;;4344573;32;318982;-80
2023/04/13 00:26:46;;;;;;;52.13;27.43;;;;;;;;;;4354501;32;318565;-80
2023/04/13 00:29:14;;;;;;;56.73;28.33;;;;;;;;;;4344181;32;318811;-81
2023/04/13 00:31:41;;;;;;;45.13;21.20;;;;;;;;;;4352517;32;317796;-80
2023/04/13 00:34:11;;;;;;;31.37;16.67;;;;;;;;;;4342945;32;318754;-81
2023/04/13 00:36:38;;;;;;;31.20;15.13;;;;;;;;;;4356833;32;318676;-80
2023/04/13 00:39:06;;;;;;;22.83;12.70;;;;;;;;;;4344462;32;318717;-80
2023/04/13 00:41:33;;;;;;;17.97;11.13;;;;;;;;;;4353955;32;319103;-81
2023/04/13 00:44:01;;;;;;;18.73;9.23;;;;;;;;;;4345271;32;319009;-80
2023/04/13 00:46:30;;;;;;;15.93;8.03;;;;;;;;;;4352061;32;317692;-81
2023/04/13 00:49:00;;;;;;;14.60;8.67;;;;;;;;;;4353427;32;317605;-81
2023/04/13 00:51:29;;;;;;;18.93;9.03;;;;;;;;;;4342997;32;417212;-81
2023/04/13 00:53:58;;;;;;;13.40;9.30;;;;;;;;;;4354000;32;317633;-81
2023/04/13 00:56:26;;;;;;;14.10;9.57;;;;;;;;;;4343853;32;318829;-81
2023/04/13 00:58:53;;;;;;;14.73;7.83;;;;;;;;;;4356118;32;317817;-81
2023/04/13 01:01:20;;;;;;;15.97;10.73;;;;;;;;;;4346546;32;317891;-80
2023/04/13 01:03:48;;;;;;;21.33;11.03;;;;;;;;;;4357775;32;318503;-82
2023/04/13 01:06:23;;;;;;;15.20;9.33;;;;;;;;;;4345123;32;318700;-80
2023/04/13 01:08:57;;;;;;;26.90;14.23;;;;;;;;;;4354558;32;317889;-80
2023/04/13 01:11:31;;;;;;;22.20;12.07;;;;;;;;;;4345920;32;318916;-80
2023/04/13 01:14:06;;;;;;;20.10;12.57;;;;;;;;;;4356641;32;318888;-80
2023/04/13 01:16:40;;;;;;;25.27;13.53;;;;;;;;;;4340981;32;418589;-80
2023/04/13 01:19:12;;;;;;;27.80;13.53;;;;;;;;;;4346860;32;318708;-80
2023/04/13 01:21:45;;;;;;;24.27;12.97;;;;;;;;;;4390987;26;318758;-96
2023/04/13 01:24:32;;;;;;;23.60;13.63;;;;;;;;;;4365286;32;318348;-96
2023/04/13 01:27:08;;;;;;;25.53;14.27;;;;;;;;;;4354440;32;318235;-96
2023/04/13 01:29:39;;;;;;;41.67;21.50;;;;;;;;;;4360376;32;421865;-96
2023/04/13 01:32:10;;;;;;;49.73;25.30;;;;;;;;;;4347892;32;332500;-96
2023/04/13 01:34:38;;;;;;;43.90;24.00;;;;;;;;;;4373845;32;318277;-96
2023/04/13 01:37:06;;;;;;;48.37;28.30;;;;;;;;;;4366672;32;318123;-96
2023/04/13 01:39:33;;;;;;;59.27;28.63;;;;;;;;;;4376190;32;318809;-96
2023/04/13 01:42:00;;;;;;;61.90;31.27;;;;;;;;;;4374482;32;318493;-96
2023/04/13 01:44:32;;;;;;;67.33;36.93;;;;;;;;;;4362922;32;421346;-96
2023/04/13 01:47:14;;;;;;;53.40;26.03;;;;;;;;;;4373590;32;318412;-96
2023/04/13 01:49:49;;;;;;;40.10;23.27;;;;;;;;;;4359624;32;420989;-96
2023/04/13 01:52:19;;;;;;;42.37;23.80;;;;;;;;;;4371455;32;318624;-96
2023/04/13 01:54:51;;;;;;;32.50;19.67;;;;;;;;;;4384682;32;318128;-96
2023/04/13 01:57:19;;;;;;;33.67;18.47;;;;;;;;;;4367328;32;318395;-95
2023/04/13 01:59:47;;;;;;;30.03;16.20;;;;;;;;;;4365551;32;318328;-96
2023/04/13 02:02:17;;;;;;;30.07;17.90;;;;;;;;;;4362461;32;351876;-96
2023/04/13 02:04:44;;;;;;;24.67;15.27;;;;;;;;;;4367883;32;318387;-96
2023/04/13 02:07:12;;;;;;;31.97;15.30;;;;;;;;;;4360425;32;318495;-96
2023/04/13 02:09:40;;;;;;;27.13;13.73;;;;;;;;;;4373018;32;318272;-96
2023/04/13 02:12:08;;;;;;;21.77;12.10;;;;;;;;;;4362604;32;318643;-96
2023/04/13 02:14:37;;;;;;;17.57;10.63;;;;;;;;;;4368245;32;317064;-96
2023/04/13 02:17:07;;;;;;;19.20;9.57;;;;;;;;;;4367547;32;318752;-96
2023/04/13 02:19:35;;;;;;;14.73;9.07;;;;;;;;;;4376252;32;317831;-96
2023/04/13 02:22:04;;;;;;;17.23;8.63;;;;;;;;;;4365579;32;317418;-96
2023/04/13 02:24:34;;;;;;;17.27;9.93;;;;;;;;;;4378238;32;316109;-96
2023/04/13 02:27:03;;;;;;;18.27;10.70;;;;;;;;;;4364173;32;342912;-96
2023/04/13 02:29:33;;;;;;;21.80;11.03;;;;;;;;;;4382682;32;318423;-96
2023/04/13 02:32:05;;;;;;;16.93;10.63;;;;;;;;;;4383609;32;318153;-96
2023/04/13 02:34:33;;;;;;;21.43;13.40;;;;;;;;;;4359380;32;420241;-96
2023/04/13 02:37:02;;;;;;;19.90;12.83;;;;;;;;;;4374649;32;318667;-96
2023/04/13 02:39:30;;;;;;;27.63;14.90;;;;;;;;;;4351729;32;421276;-96
2023/04/13 02:42:01;;;;;;;24.27;15.47;;;;;;;;;;4363023;32;318193;-96
2023/04/13 02:44:29;;;;;;;25.87;15.20;;;;;;;;;;4338477;32;421360;-96
2023/04/13 02:46:56;;;;;;;30.27;16.00;;;;;;;;;;4350524;32;349941;-96
2023/04/13 02:49:26;;;;;;;34.87;18.30;;;;;;;;;;4319535;32;318726;-96
2023/04/13 02:51:54;;;;;;;35.77;17.60;;;;;;;;;;4343229;32;318787;-96
2023/04/13 02:54:23;;;;;;;24.53;13.47;;;;;;;;;;4339898;32;318751;-96
2023/04/13 02:56:53;;;;;;;22.20;12.70;;;;;;;;;;4348453;32;318777;-96
2023/04/13 02:59:20;;;;;;;25.40;10.80;;;;;;;;;;4351335;32;318850;-96
2023/04/13 03:01:48;;;;;;;22.30;11.37;;;;;;;;;;4361752;32;318653;-96
2023/04/13 03:04:16;;;;;;;18.60;10.30;;;;;;;;;;4357442;32;318139;-96
2023/04/13 03:06:44;;;;;;;20.47;11.37;;;;;;;;;;4338808;32;318638;-96
2023/04/13 03:09:12;;;;;;;19.83;10.70;;;;;;;;;;4349514;32;317544;-96
2023/04/13 03:11:43;;;;;;;21.90;12.23;;;;;;;;;;4357100;32;317643;-96
2023/04/13 03:14:20;;;;;;;22.50;12.77;;;;;;;;;;4328312;32;345856;-96
2023/04/13 03:16:48;;;;;;;23.13;12.93;;;;;;;;;;4341798;32;317298;-96
2023/04/13 03:19:19;;;;;;;25.50;14.03;;;;;;;;;;4339738;32;317524;-96
2023/04/13 03:21:48;;;;;;;21.90;13.40;;;;;;;;;;4352590;32;316406;-96
2023/04/13 03:24:26;;;;;;;23.63;13.20;;;;;;;;;;4341008;32;317866;-96
2023/04/13 03:26:57;;;;;;;21.60;9.93;;;;;;;;;;4342481;32;317336;-96
2023/04/13 03:29:25;;;;;;;18.47;10.73;;;;;;;;;;4339128;32;316681;-96
2023/04/13 03:31:53;;;;;;;22.37;11.50;;;;;;;;;;4350849;32;317103;-96
2023/04/13 03:34:22;;;;;;;21.17;10.90;;;;;;;;;;4342859;32;326210;-96
2023/04/13 03:36:50;;;;;;;24.80;11.63;;;;;;;;;;4368774;32;316628;-96
2023/04/13 03:39:18;;;;;;;20.03;11.03;;;;;;;;;;4354142;32;317861;-96
2023/04/13 03:41:45;;;;;;;21.97;11.20;;;;;;;;;;4345755;32;316598;-96
2023/04/13 03:44:15;;;;;;;30.00;12.03;;;;;;;;;;4351471;32;317558;-96
2023/04/13 03:46:43;;;;;;;22.60;12.80;;;;;;;;;;4349733;32;317354;-96
2023/04/13 03:49:11;;;;;;;25.10;14.50;;;;;;;;;;4352113;32;317201;-96
2023/04/13 03:51:43;;;;;;;24.27;13.37;;;;;;;;;;4353973;32;317640;-96
2023/04/13 03:54:10;;;;;;;23.97;13.40;;;;;;;;;;4338046;32;318607;-96
2023/04/13 03:56:37;;;;;;;34.77;14.00;;;;;;;;;;4358878;32;318692;-96
2023/04/13 03:59:04;;;;;;;28.37;13.97;;;;;;;;;;4342758;32;318517;-96
2023/04/13 04:01:34;;;;;;;25.50;13.07;;;;;;;;;;4344971;32;317221;-95
2023/04/13 04:04:01;;;;;;;29.37;15.57;;;;;;;;;;4333659;32;336258;-96
2023/04/13 04:06:28;;;;;;;29.77;16.30;;;;;;;;;;4336407;33;346651;-96
2023/04/13 04:08:55;;;;;;;35.23;16.70;;;;;;;;;;4341378;32;318162;-96
2023/04/13 04:11:25;;;;;;;29.63;17.07;;;;;;;;;;4334309;32;348896;-96
2023/04/13 04:14:01;;;;;;;45.00;25.43;;;;;;;;;;4354466;32;318358;-96
2023/04/13 04:16:28;;;;;;;52.97;25.70;;;;;;;;;;4344895;32;421267;-96
2023/04/13 04:18:57;;;;;;;38.47;23.53;;;;;;;;;;4354409;32;318427;-96
2023/04/13 04:21:33;;;;;;;90.07;41.10;;;;;;;;;;4346907;32;318421;-96
2023/04/13 04:24:00;;;;;;;200.17;84.20;;;;;;;;;;4346133;32;318597;-96
2023/04/13 04:26:38;;;;;;;349.43;147.77;;;;;;;;;;4334224;33;422111;-96
2023/04/13 04:29:08;;;;;;;360.17;150.50;;;;;;;;;;4334861;32;320922;-96
2023/04/13 04:31:42;;;;;;;330.40;140.27;;;;;;;;;;4352795;32;320941;-96
2023/04/13 04:34:15;;;;;;;311.40;140.93;;;;;;;;;;4342330;32;320692;-96
2023/04/13 04:36:49;;;;;;;289.40;125.00;;;;;;;;;;4362853;32;320541;-96
2023/04/13 04:39:22;;;;;;;255.03;109.43;;;;;;;;;;4358469;32;319365;-96
2023/04/13 04:41:53;;;;;;;280.80;121.93;;;;;;;;;;4347861;32;319831;-96
2023/04/13 04:44:23;;;;;;;257.30;111.80;;;;;;;;;;4353941;32;319540;-96
2023/04/13 04:46:51;;;;;;;211.03;88.53;;;;;;;;;;4358366;32;319720;-96
2023/04/13 04:49:20;;;;;;;160.73;69.60;;;;;;;;;;4348159;32;318513;-96
2023/04/13 04:51:48;;;;;;;114.13;51.97;;;;;;;;;;4357215;32;349629;-96
2023/04/13 04:54:18;;;;;;;108.43;53.00;;;;;;;;;;4348758;32;319536;-96
2023/04/13 04:56:47;;;;;;;77.77;37.27;;;;;;;;;;4357947;32;318219;-96
2023/04/13 04:59:16;;;;;;;77.63;37.20;;;;;;;;;;4343232;32;318538;-96
2023/04/13 05:01:43;;;;;;;81.73;38.70;;;;;;;;;;4350031;32;318381;-96
2023/04/13 05:04:11;;;;;;;99.13;43.43;;;;;;;;;;4333622;32;317826;-95
2023/04/13 05:06:57;;;;;;;83.97;37.57;;;;;;;;;;4347197;32;318415;-96
2023/04/13 05:09:27;;;;;;;87.73;42.83;;;;;;;;;;4335720;32;318596;-96
2023/04/13 05:11:56;;;;;;;81.07;40.80;;;;;;;;;;4346019;32;318520;-96
2023/04/13 05:14:24;;;;;;;74.77;39.33;;;;;;;;;;4375815;27;318829;-81
2023/04/13 05:16:51;;;;;;;81.17;37.50;;;;;;;;;;4403202;32;319284;-81
2023/04/13 05:19:19;;;;;;;67.67;36.77;;;;;;;;;;4390774;32;319108;-80
2023/04/13 05:21:47;;;;;;;78.00;34.27;;;;;;;;;;4402082;32;319137;-82
2023/04/13 05:24:16;;;;;;;81.50;37.80;;;;;;;;;;4392064;32;318973;-80
2023/04/13 05:26:47;;;;;;;86.13;37.90;;;;;;;;;;4402805;32;318865;-80
2023/04/13 05:29:14;;;;;;;119.23;74.03;;;;;;;;;;4391739;32;319002;-81
2023/04/13 05:31:42;;;;;;;75.40;38.17;;;;;;;;;;4400499;32;319824;-79
2023/04/13 05:34:10;;;;;;;96.37;39.80;;;;;;;;;;4388224;32;319189;-80
2023/04/13 05:36:38;;;;;;;100.77;41.20;;;;;;;;;;4402206;32;319660;-79
2023/04/13 05:39:05;;;;;;;98.23;45.27;;;;;;;;;;4390653;32;319838;-80
2023/04/13 05:41:34;;;;;;;98.17;48.07;;;;;;;;;;4400308;32;319048;-81
2023/04/13 05:44:02;;;;;;;120.70;48.10;;;;;;;;;;4388756;32;332547;-79
2023/04/13 05:46:29;;;;;;;132.30;57.57;;;;;;;;;;4402723;32;320219;-80
2023/04/13 05:48:58;;;;;;;128.60;53.07;;;;;;;;;;4401322;32;320083;-77
2023/04/13 05:51:29;;;;;;;98.80;46.93;;;;;;;;;;4390873;32;319863;-78
2023/04/13 05:53:57;;;;;;;109.57;52.80;;;;;;;;;;4388165;32;318747;-81
2023/04/13 05:56:24;;;;;;;119.50;51.70;;;;;;;;;;4392184;32;320302;-83
2023/04/13 05:58:53;;;;;;;100.27;44.27;;;;;;;;;;4402078;32;319835;-85
2023/04/13 06:01:23;;;;;;;78.47;39.57;;;;;;;;;;4389254;32;320256;-85
2023/04/13 06:03:51;;;;;;;75.90;35.07;;;;;;;;;;4404015;32;319171;-85
2023/04/13 06:06:19;;;;;;;70.17;30.67;;;;;;;;;;4390673;32;318737;-85
2023/04/13 06:08:47;;;;;;;53.37;29.07;;;;;;;;;;4401711;32;318542;-83
2023/04/13 06:11:15;;;;;;;67.73;27.70;;;;;;;;;;4392476;32;318923;-81
2023/04/13 06:13:43;;;;;;;56.77;29.33;;;;;;;;;;4401803;32;318794;-80
2023/04/13 06:16:12;;;;;;;49.10;22.70;;;;;;;;;;4361583;32;318608;-79
2023/04/13 06:18:41;;;;;;;37.33;19.23;;;;;;;;;;4372264;32;318624;-79
2023/04/13 06:21:08;;;;;;;42.23;20.43;;;;;;;;;;4362362;32;319043;-79
2023/04/13 06:23:37;;;;;;;44.67;20.57;;;;;;;;;;4370451;32;349267;-81
2023/04/13 06:26:05;;;;;;;40.20;19.57;;;;;;;;;;4361752;32;318756;-82
2023/04/13 06:28:36;;;;;;;34.97;18.13;;;;;;;;;;4364933;32;319206;-80
2023/04/13 06:31:05;;;;;;;40.53;15.27;;;;;;;;;;4357194;32;351558;-85
2023/04/13 06:33:34;;;;;;;27.10;14.90;;;;;;;;;;4371841;32;318838;-82
2023/04/13 06:36:02;;;;;;;26.73;12.73;;;;;;;;;;4364313;32;318554;-78
2023/04/13 06:38:30;;;;;;;27.07;12.43;;;;;;;;;;4375662;32;318750;-80
2023/04/13 06:41:02;;;;;;;25.20;11.77;;;;;;;;;;4371381;32;318594;-80
2023/04/13 06:43:29;;;;;;;26.80;12.77;;;;;;;;;;4358292;32;390187;-79
2023/04/13 06:46:01;;;;;;;20.47;11.47;;;;;;;;;;4372112;32;318888;-80
2023/04/13 06:48:28;;;;;;;26.63;12.30;;;;;;;;;;4359571;32;418295;-80
2023/04/13 06:50:59;;;;;;;25.07;11.00;;;;;;;;;;4370731;32;318588;-80
2023/04/13 06:53:26;;;;;;;20.63;11.00;;;;;;;;;;4356951;32;421086;-80
2023/04/13 06:55:54;;;;;;;22.80;12.03;;;;;;;;;;4371009;32;318705;-81
2023/04/13 06:58:24;;;;;;;30.20;10.90;;;;;;;;;;4361358;32;319245;-78
2023/04/13 07:00:51;;;;;;;26.93;10.87;;;;;;;;;;4370677;32;318600;-80
2023/04/13 07:03:19;;;;;;;18.03;8.97;;;;;;;;;;4360579;32;318920;-80
2023/04/13 07:05:46;;;;;;;16.00;9.07;;;;;;;;;;4370333;32;317674;-78
2023/04/13 07:08:18;;;;;;;23.10;9.87;;;;;;;;;;4359848;32;317868;-78
2023/04/13 07:10:45;;;;;;;14.87;8.47;;;;;;;;;;4370369;32;316724;-78
2023/04/13 07:13:13;;;;;;;17.63;9.93;;;;;;;;;;4360497;32;317679;-78
2023/04/13 07:15:41;;;;;;;19.10;9.83;;;;;;;;;;4393542;32;317473;-79
2023/04/13 07:18:10;;;;;;;21.87;10.07;;;;;;;;;;4390250;32;317792;-80
2023/04/13 07:20:38;;;;;;;20.77;11.13;;;;;;;;;;4400293;32;318575;-80
2023/04/13 07:23:06;;;;;;;14.60;8.23;;;;;;;;;;4390744;32;318741;-81
2023/04/13 07:25:36;;;;;;;16.20;9.80;;;;;;;;;;4401585;32;317882;-78
2023/04/13 07:28:03;;;;;;;14.60;8.20;;;;;;;;;;4396468;32;317368;-79
2023/04/13 07:30:31;;;;;;;13.70;7.10;;;;;;;;;;4411561;32;317582;-78
2023/04/13 07:33:00;;;;;;;13.03;7.73;;;;;;;;;;4411516;32;317834;-79
2023/04/13 07:35:31;;;;;;;12.13;6.87;;;;;;;;;;4399962;32;416938;-80
2023/04/13 07:37:58;;;;;;;12.63;5.23;;;;;;;;;;4409494;32;339008;-79
2023/04/13 07:40:25;;;;;;;13.80;5.37;;;;;;;;;;4392920;32;318142;-80
2023/04/13 07:42:55;;;;;;;8.87;5.10;;;;;;;;;;4385983;32;317820;-80
2023/04/13 07:45:22;;;;;;;9.63;5.57;;;;;;;;;;4390548;32;316602;-80
2023/04/13 07:47:51;;;;;;;9.90;5.10;;;;;;;;;;4404689;32;316648;-80
2023/04/13 07:50:19;;;;;;;8.60;6.27;;;;;;;;;;4395735;32;316643;-79
2023/04/13 07:52:46;;;;;;;10.67;5.30;;;;;;;;;;4403402;32;316881;-80
2023/04/13 07:55:13;;;;;;;9.93;6.23;;;;;;;;;;4393374;32;317873;-77
2023/04/13 07:57:41;;;;;;;18.57;5.90;;;;;;;;;;4406925;32;317213;-80
2023/04/13 08:00:13;;;;;;;8.33;5.23;;;;;;;;;;4393715;32;318012;-80
2023/04/13 08:02:40;;;;;;;18.93;6.17;;;;;;;;;;4401471;32;316663;-82
2023/04/13 08:05:09;;;;;;;8.67;4.80;;;;;;;;;;4391712;32;317963;-80
2023/04/13 08:07:38;;;;;;;6.70;4.50;;;;;;;;;;4402265;32;325498;-83
2023/04/13 08:10:07;;;;;;;5.90;4.00;;;;;;;;;;4393912;32;316943;-82
2023/04/13 08:12:35;;;;;;;6.83;3.93;;;;;;;;;;4404106;32;315603;-81
2023/04/13 08:15:02;;;;;;;8.10;4.10;;;;;;;;;;4394400;32;316685;-81
2023/04/13 08:17:32;;;;;;;10.33;3.67;;;;;;;;;;4403865;32;317017;-81
2023/04/13 08:20:00;;;;;;;8.50;4.67;;;;;;;;;;4405285;32;317829;-79
2023/04/13 08:22:27;;;;;;;3.80;3.23;;;;;;;;;;4388622;32;416314;-77
2023/04/13 08:24:55;;;;;;;10.03;4.33;;;;;;;;;;4403866;32;316777;-76
2023/04/13 08:27:22;;;;;;;4.90;3.67;;;;;;;;;;4392391;32;317785;-80
2023/04/13 08:29:55;;;;;;;13.40;3.70;;;;;;;;;;4404016;32;316644;-82
2023/04/13 08:32:23;;;;;;;11.57;3.27;;;;;;;;;;4393600;32;316492;-79
2023/04/13 08:34:52;;;;;;;3.63;3.07;;;;;;;;;;4402702;32;317895;-81
2023/04/13 08:37:19;;;;;;;8.50;3.17;;;;;;;;;;4392656;32;316710;-79
2023/04/13 08:39:47;;;;;;;10.77;4.23;;;;;;;;;;4404735;32;316685;-81
2023/04/13 08:42:16;;;;;;;5.57;3.03;;;;;;;;;;4393277;32;317691;-78
2023/04/13 08:44:43;;;;;;;5.30;3.70;;;;;;;;;;4402802;32;316795;-84
2023/04/13 08:47:11;;;;;;;8.00;3.13;;;;;;;;;;4393859;32;316717;-77
2023/04/13 08:49:40;;;;;;;4.27;3.07;;;;;;;;;;4403560;32;316704;-83
2023/04/13 08:52:10;;;;;;;4.60;3.53;;;;;;;;;;4394041;32;316954;-78
2023/04/13 08:54:38;;;;;;;9.30;3.90;;;;;;;;;;4404429;32;316847;-81
2023/04/13 08:57:06;;;;;;;5.10;3.07;;;;;;;;;;4391142;32;317147;-79
2023/04/13 08:59:36;;;;;;;4.90;2.87;;;;;;;;;;4404181;32;316805;-79
2023/04/13 09:02:06;;;;;;;5.50;3.40;;;;;;;;;;4392507;32;317038;-81
2023/04/13 09:04:37;;;;;;;5.70;3.60;;;;;;;;;;4402139;32;316697;-80
2023/04/13 09:07:05;;;;;;;5.83;3.77;;;;;;;;;;4392618;32;316782;-82
2023/04/13 09:09:39;;;;;;;7.83;3.60;;;;;;;;;;4403516;32;316878;-84
2023/04/13 09:12:07;;;;;;;5.93;3.28;;;;;;;;;;4391628;32;316634;-81
2023/04/13 09:14:37;;;;;;;7.63;3.43;;;;;;;;;;4402024;32;316705;-81
2023/04/13 09:17:05;;;;;;;5.18;3.15;;;;;;;;;;4393045;32;316832;-81
2023/04/13 09:19:33;;;;;;;6.83;3.03;;;;;;;;;;4401431;32;316709;-80
2023/04/13 09:22:12;;;;;;;14.25;3.35;;;;;;;;;;4403988;32;316652;-81
2023/04/13 09:24:42;;;;;;;10.50;4.45;;;;;;;;;;4371658;32;417254;-81
2023/04/13 09:27:19;;;;;;;11.53;2.70;;;;;;;;;;4391491;32;337034;-80
2023/04/13 09:29:51;;;;;;;15.00;3.42;;;;;;;;;;4401525;32;317633;-82
2023/04/13 09:32:25;;;;;;;37.30;4.47;;;;;;;;;;4391389;32;317775;-79
2023/04/13 09:35:01;;;;;;;5.93;2.95;;;;;;;;;;4383607;32;317826;-81
2023/04/13 09:37:29;;;;;;;5.28;3.12;;;;;;;;;;4382699;32;416020;-81
2023/04/13 09:40:09;;;;;;;7.10;2.65;;;;;;;;;;4401757;32;316658;-78
2023/04/13 09:42:37;;;;;;;9.38;3.12;;;;;;;;;;4390056;32;416494;-78
2023/04/13 09:45:05;;;;;;;10.88;2.95;;;;;;;;;;4390130;32;316815;-77
2023/04/13 09:47:39;;;;;;;5.57;2.08;;;;;;;;;;4402196;32;316547;-80
2023/04/13 09:50:17;;;;;;;12.70;2.45;;;;;;;;;;4391647;32;316811;-79
2023/04/13 09:52:45;;;;;;;7.25;2.20;;;;;;;;;;4403196;32;317802;-80
2023/04/13 09:55:17;;;;;;;12.93;2.65;;;;;;;;;;4391868;32;316627;-79
2023/04/13 09:57:45;;;;;;;15.90;3.40;;;;;;;;;;4402074;32;317757;-80
2023/04/13 10:00:20;;;;;;;3.33;1.90;;;;;;;;;;4389838;32;317764;-81
2023/04/13 10:02:50;;;;;;;6.33;2.73;;;;;;;;;;4400491;32;316537;-79
2023/04/13 10:05:18;;;;;;;3.65;2.40;;;;;;;;;;4392085;32;317547;-81
2023/04/13 10:07:47;;;;;;;17.02;2.53;;;;;;;;;;4400074;32;316921;-79
2023/04/13 10:10:15;;;;;;;9.80;3.37;;;;;;;;;;4390366;32;317701;-81
2023/04/13 10:12:50;;;;;;;12.25;2.78;;;;;;;;;;4403402;32;316963;-83
2023/04/13 10:15:31;;;;;;;3.47;1.70;;;;;;;;;;4391599;32;318907;-84
2023/04/13 10:18:07;;;;;;;9.73;2.80;;;;;;;;;;4401602;32;316801;-82
2023/04/13 10:20:35;;;;;;;3.87;2.42;;;;;;;;;;4393227;32;415977;-83
2023/04/13 10:23:05;;;;;;;7.25;2.42;;;;;;;;;;4394510;32;316473;-82
2023/04/13 10:25:32;;;;;;;11.32;2.60;;;;;;;;;;4403940;32;316514;-78
2023/04/13 10:28:01;;;;;;;4.75;2.58;;;;;;;;;;4404782;32;316688;-78
2023/04/13 10:30:29;;;;;;;11.65;2.67;;;;;;;;;;4387375;32;416132;-79
2023/04/13 10:33:07;;;;;;;5.70;2.25;;;;;;;;;;4401949;32;317927;-77
2023/04/13 10:35:39;;;;;;;5.55;2.08;;;;;;;;;;4389675;32;419154;-78
2023/04/13 10:38:07;;;;;;;4.43;2.00;;;;;;;;;;4378101;32;316808;-76
2023/04/13 10:40:46;;;;;;;3.97;2.47;;;;;;;;;;4396397;32;316841;-76
2023/04/13 10:43:26;;;;;;;3.83;2.23;;;;;;;;;;4391421;32;316837;-82
2023/04/13 10:46:05;;;;;;;3.17;2.15;;;;;;;;;;4404650;32;316431;-80
2023/04/13 10:48:33;;;;;;;5.55;2.50;;;;;;;;;;4390101;32;417356;-81
2023/04/13 10:51:01;;;;;;;6.03;2.95;;;;;;;;;;4403623;32;316524;-80
2023/04/13 10:53:29;;;;;;;6.43;2.37;;;;;;;;;;4391397;32;419031;-80
2023/04/13 10:55:57;;;;;;;11.90;2.87;;;;;;;;;;4403857;32;316874;-80
2023/04/13 10:58:28;;;;;;;6.75;2.72;;;;;;;;;;4392003;32;317792;-81
2023/04/13 11:00:56;;;;;;;4.22;2.03;;;;;;;;;;4403229;32;316756;-81
2023/04/13 11:03:28;;;;;;;7.30;2.35;;;;;;;;;;4391982;32;316825;-81
2023/04/13 11:05:58;;;;;;;13.85;2.55;;;;;;;;;;4404008;32;316647;-79
2023/04/13 11:08:26;;;;;;;5.65;3.03;;;;;;;;;;4392942;32;351685;-81
2023/04/13 11:11:00;;;;;;;5.22;2.60;;;;;;;;;;4403958;32;316570;-81
2023/04/13 11:13:31;;;;;;;2.78;2.20;;;;;;;;;;4371620;32;415326;-86
2023/04/13 11:16:13;;;;;;;5.32;2.80;;;;;;;;;;4400561;32;316389;-82
2023/04/13 11:18:42;;;;;;;3.70;2.10;;;;;;;;;;4381798;32;416223;-82
2023/04/13 11:21:15;;;;;;;6.22;3.35;;;;;;;;;;4387647;32;316124;-79
2023/04/13 11:23:51;;;;;;;4.28;2.70;;;;;;;;;;4401979;32;316572;-80
2023/04/13 11:26:18;;;;;;;4.90;2.20;;;;;;;;;;4394227;32;316626;-81
2023/04/13 11:28:47;;;;;;;6.78;3.22;;;;;;;;;;4409338;32;316823;-81
2023/04/13 11:31:15;;;;;;;3.90;2.47;;;;;;;;;;4402063;32;316400;-81
2023/04/13 11:33:43;;;;;;;8.45;2.05;;;;;;;;;;4413993;32;330036;-80
2023/04/13 11:36:22;;;;;;;5.85;2.47;;;;;;;;;;4390969;32;316185;-80
2023/04/13 11:39:09;;;;;;;4.35;2.95;;;;;;;;;;4385735;32;315416;-79
2023/04/13 11:42:11;;;;;;;4.72;2.65;;;;;;;;;;4353920;32;416783;-81
2023/04/13 11:44:46;;;;;;;13.82;2.72;;;;;;;;;;4341887;32;417527;-81
2023/04/13 11:47:17;;;;;;;4.60;2.60;;;;;;;;;;4376909;32;317830;-82
2023/04/13 11:49:46;;;;;;;6.10;2.80;;;;;;;;;;4401865;32;316927;-81
2023/04/13 11:52:14;;;;;;;3.53;2.22;;;;;;;;;;4392125;32;316864;-81
2023/04/13 11:54:43;;;;;;;5.87;3.37;;;;;;;;;;4401861;32;316549;-80
2023/04/13 11:57:11;;;;;;;4.97;2.05;;;;;;;;;;4389114;32;316753;-80
2023/04/13 11:59:39;;;;;;;6.80;2.87;;;;;;;;;;4401588;32;316651;-79
2023/04/13 12:02:10;;;;;;;4.07;2.33;;;;;;;;;;4390685;32;316898;-79
2023/04/13 12:04:39;;;;;;;9.73;2.00;;;;;;;;;;4402682;32;319071;-81
2023/04/13 12:07:12;;;;;;;5.50;2.55;;;;;;;;;;4390404;32;316831;-81
2023/04/13 12:09:44;;;;;;;4.00;1.87;;;;;;;;;;4402635;32;316791;-81
2023/04/13 12:12:17;;;;;;;2.78;1.87;;;;;;;;;;4391923;32;316637;-83
2023/04/13 12:14:51;;;;;;;5.07;2.17;;;;;;;;;;4400679;32;322694;-83
2023/04/13 12:17:20;;;;;;;4.32;2.40;;;;;;;;;;4390364;32;316925;-83
2023/04/13 12:19:54;;;;;;;4.65;2.25;;;;;;;;;;4402130;32;316840;-83
2023/04/13 12:22:22;;;;;;;3.90;3.08;;;;;;;;;;4389417;32;316786;-82
2023/04/13 12:24:50;;;;;;;7.10;3.45;;;;;;;;;;4400338;32;316987;-79
2023/04/13 12:27:18;;;;;;;3.90;2.58;;;;;;;;;;4391360;32;316801;-80
2023/04/13 12:29:47;;;;;;;8.48;2.50;;;;;;;;;;4401238;32;316457;-79
2023/04/13 12:32:15;;;;;;;5.18;2.22;;;;;;;;;;4390157;32;316907;-79
2023/04/13 12:34:44;;;;;;;3.92;2.50;;;;;;;;;;4400615;32;316833;-80
2023/04/13 12:37:12;;;;;;;3.50;2.10;;;;;;;;;;4389586;32;328982;-77
2023/04/13 12:39:39;;;;;;;8.95;2.65;;;;;;;;;;4402389;32;316846;-77
2023/04/13 12:42:07;;;;;;;6.05;2.50;;;;;;;;;;4390637;32;316723;-79
2023/04/13 12:44:34;;;;;;;3.33;2.35;;;;;;;;;;4401684;32;316990;-79
2023/04/13 12:47:02;;;;;;;5.22;2.50;;;;;;;;;;4390986;32;316633;-80
2023/04/13 12:49:29;;;;;;;5.55;2.33;;;;;;;;;;4400293;32;337444;-79
2023/04/13 12:51:58;;;;;;;3.45;1.98;;;;;;;;;;4402420;32;316783;-79
2023/04/13 12:54:27;;;;;;;2.87;2.33;;;;;;;;;;4393225;32;317024;-80
2023/04/13 12:56:55;;;;;;;8.35;2.10;;;;;;;;;;4403521;32;348651;-80
2023/04/13 12:59:23;;;;;;;7.05;2.72;;;;;;;;;;4392390;32;317211;-79
2023/04/13 13:01:50;;;;;;;6.45;2.53;;;;;;;;;;4401564;32;317165;-79
2023/04/13 13:04:18;;;;;;;2.20;1.87;;;;;;;;;;4392846;32;316638;-81
2023/04/13 13:06:46;;;;;;;4.25;2.28;;;;;;;;;;4401042;32;316914;-80
2023/04/13 13:09:15;;;;;;;6.30;2.93;;;;;;;;;;4391501;32;333597;-81
2023/04/13 13:11:42;;;;;;;3.17;2.00;;;;;;;;;;4401229;32;316974;-81
2023/04/13 13:14:10;;;;;;;6.43;2.50;;;;;;;;;;4392372;32;317589;-81
2023/04/13 13:16:37;;;;;;;5.57;2.00;;;;;;;;;;4385331;32;316769;-81
2023/04/13 13:19:04;;;;;;;4.93;2.87;;;;;;;;;;4389037;32;316846;-81
2023/04/13 13:21:32;;;;;;;2.78;1.52;;;;;;;;;;4403336;32;317236;-80
2023/04/13 13:23:59;;;;;;;4.45;2.67;;;;;;;;;;4403505;32;317053;-80
2023/04/13 13:26:28;;;;;;;2.97;2.37;;;;;;;;;;4387568;32;417767;-82
2023/04/13 13:28:55;;;;;;;4.00;1.80;;;;;;;;;;4403540;32;321344;-81
2023/04/13 13:31:23;;;;;;;3.05;1.80;;;;;;;;;;4392286;32;316915;-80
2023/04/13 13:33:50;;;;;;;2.42;1.90;;;;;;;;;;4402129;32;316480;-82
2023/04/13 13:36:18;;;;;;;2.72;1.52;;;;;;;;;;4391329;32;316796;-80
2023/04/13 13:38:47;;;;;;;4.28;1.62;;;;;;;;;;4401654;32;347124;-80
2023/04/13 13:41:15;;;;;;;3.15;1.95;;;;;;;;;;4391136;32;316889;-81
2023/04/13 13:43:43;;;;;;;4.30;2.10;;;;;;;;;;4403522;32;316730;-80
2023/04/13 13:46:11;;;;;;;2.20;1.20;;;;;;;;;;4393564;32;316762;-79
2023/04/13 13:48:38;;;;;;;3.30;2.00;;;;;;;;;;4403306;32;316693;-80
2023/04/13 13:51:05;;;;;;;2.80;1.33;;;;;;;;;;4389740;32;316733;-80
2023/04/13 13:53:33;;;;;;;3.17;1.73;;;;;;;;;;4404171;32;316515;-80
2023/04/13 13:56:00;;;;;;;8.50;1.95;;;;;;;;;;4403299;32;316716;-81
2023/04/13 13:58:28;;;;;;;2.83;1.37;;;;;;;;;;4389052;32;416186;-79
2023/04/13 14:00:56;;;;;;;5.28;1.80;;;;;;;;;;4403966;32;316478;-81
2023/04/13 14:03:24;;;;;;;2.20;1.85;;;;;;;;;;4392646;32;316756;-80
2023/04/13 14:05:52;;;;;;;2.97;2.03;;;;;;;;;;4402918;32;316711;-79
2023/04/13 14:08:20;;;;;;;3.33;2.05;;;;;;;;;;4392727;32;316769;-79
2023/04/13 14:10:48;;;;;;;3.20;1.95;;;;;;;;;;4404672;32;315500;-80
2023/04/13 14:13:16;;;;;;;2.40;1.35;;;;;;;;;;4391397;32;316793;-81
2023/04/13 14:15:43;;;;;;;8.68;2.83;;;;;;;;;;4402116;32;316753;-79
2023/04/13 14:18:13;;;;;;;3.03;1.58;;;;;;;;;;4388585;32;317072;-79
2023/04/13 14:20:42;;;;;;;5.53;1.92;;;;;;;;;;4401480;32;316573;-78
2023/04/13 14:23:10;;;;;;;2.55;1.77;;;;;;;;;;4391933;32;316923;-77
2023/04/13 14:25:39;;;;;;;2.33;1.55;;;;;;;;;;4400621;32;316701;-78
2023/04/13 14:28:09;;;;;;;4.03;1.48;;;;;;;;;;4388124;32;315625;-82
2023/04/13 14:30:38;;;;;;;1.75;1.35;;;;;;;;;;4403586;32;316759;-81